Terminal Aerodrome Forecast
Issued by NWS

Home | Current Version | Previous Version | Text Only | Print | Product List | Glossary On
Versions: 1 2 3 4 5 6 7 8 9 10 11 12 13 14 15 16
000
FTUS41 KGYX 121700
TAFAUG
TAF
KAUG 121733Z 1218/1318 18005KT P6SM FEW050 SCT250
     FM130700 20003KT 3SM BR SCT050 BKN100
     FM131200 18006KT P6SM SCT040 BKN100
     FM131600 18007KT P6SM BKN035 BKN100=

USA.gov is the U.S. government's official web portal to all federal, state and local government web resources and services.